Time;durP1;ratioP1;P1;durP2;ratioP2;P2;SDS_P1;SDS_P2;PMS_P1;PMS_P2;Temp;Humidity;BMP_temperature;BMP_pressure;BME280_temperature;BME280_humidity;BME280_pressure;Samples;Min_cycle;Max_cycle;Signal;HPM_P1;HPM_P2
2023/08/28 00:00:06;;;;;;;6.30;3.10;;;;;;;13.73;100.00;101174.94;5070184;28;20064;-36
2023/08/28 00:02:31;;;;;;;5.75;2.45;;;;;;;13.74;100.00;101165.69;5069467;28;20453;-36
2023/08/28 00:04:57;;;;;;;3.55;2.53;;;;;;;13.78;100.00;101167.69;5069558;28;20025;-36
2023/08/28 00:07:22;;;;;;;6.53;3.03;;;;;;;13.71;100.00;101183.31;5070408;28;20059;-36
2023/08/28 00:09:48;;;;;;;;;;;;;;;13.84;100.00;101171.31;5062352;28;20036;-36
2023/08/28 00:12:13;;;;;;;5.18;3.00;;;;;;;13.64;100.00;101178.03;5057125;28;19905;-36
2023/08/28 00:14:39;;;;;;;4.50;2.85;;;;;;;13.64;100.00;101182.63;5056508;28;20052;-36
2023/08/28 00:17:05;;;;;;;4.22;3.25;;;;;;;13.64;100.00;101167.16;5056179;28;20072;-36
2023/08/28 00:19:31;;;;;;;;;;;;;;;13.78;100.00;101173.13;5056574;28;20361;-36
2023/08/28 00:21:56;;;;;;;6.35;3.80;;;;;;;13.68;100.00;101172.13;5056432;28;19905;-36
2023/08/28 00:24:22;;;;;;;5.03;2.95;;;;;;;13.63;100.00;101170.94;5056156;28;20461;-36
2023/08/28 00:26:48;;;;;;;3.22;2.92;;;;;;;13.56;100.00;101155.84;5056362;28;20453;-37
2023/08/28 00:29:13;;;;;;;;;;;;;;;13.76;100.00;101166.28;5056408;28;20029;-36
2023/08/28 00:31:39;;;;;;;3.20;2.45;;;;;;;13.61;100.00;101173.06;5056800;28;20249;-36
2023/08/28 00:34:05;;;;;;;;;;;;;;;13.72;100.00;101167.84;5056079;28;20035;-37
2023/08/28 00:36:30;;;;;;;4.32;2.30;;;;;;;13.65;100.00;101165.25;5056162;28;19908;-36
2023/08/28 00:38:55;;;;;;;4.70;3.13;;;;;;;13.50;100.00;101164.97;5055985;28;20468;-36
2023/08/28 00:41:21;;;;;;;5.78;3.05;;;;;;;13.52;100.00;101162.88;5055654;28;20040;-36
2023/08/28 00:43:46;;;;;;;3.72;2.75;;;;;;;13.47;100.00;101158.16;5055502;28;20021;-36
2023/08/28 00:46:11;;;;;;;6.18;3.25;;;;;;;13.41;100.00;101156.38;5056572;28;20021;-36
2023/08/28 00:48:38;;;;;;;;;;;;;;;13.57;100.00;101158.34;5056400;28;20032;-36
2023/08/28 00:51:04;;;;;;;2.87;2.47;;;;;;;13.39;100.00;101145.78;5055387;28;20383;-36
2023/08/28 00:53:30;;;;;;;4.22;3.00;;;;;;;13.35;100.00;101158.19;5056440;28;20255;-37
2023/08/28 00:55:55;;;;;;;4.32;2.97;;;;;;;13.34;100.00;101153.81;5055517;28;20032;-37
2023/08/28 00:58:21;;;;;;;3.42;3.13;;;;;;;13.29;100.00;101142.03;5055731;28;20052;-37
2023/08/28 01:00:47;;;;;;;4.53;2.72;;;;;;;13.26;100.00;101143.34;5055444;28;20139;-37
2023/08/28 01:03:12;;;;;;;3.55;2.88;;;;;;;13.28;100.00;101141.22;5055719;28;20029;-37
2023/08/28 01:05:49;;;;;;;4.18;3.28;;;;;;;13.26;100.00;101143.34;5055313;28;20507;-37
2023/08/28 01:08:33;;;;;;;6.18;3.20;;;;;;;13.22;100.00;101144.88;5055016;28;20481;-37
2023/08/28 01:11:10;;;;;;;4.03;2.97;;;;;;;13.18;100.00;101142.88;5055007;28;20021;-37
2023/08/28 01:13:51;;;;;;;3.38;3.05;;;;;;;13.15;100.00;101147.72;5054900;28;20020;-37
2023/08/28 01:16:20;;;;;;;3.03;2.72;;;;;;;13.05;100.00;101127.69;5055119;28;20142;-37
2023/08/28 01:18:46;;;;;;;5.13;3.28;;;;;;;13.05;100.00;101133.94;5055099;28;20032;-37
2023/08/28 01:21:12;;;;;;;;;;;;;;;13.23;100.00;101143.84;5054733;28;20099;-37
2023/08/28 01:23:48;;;;;;;3.70;3.22;;;;;;;13.10;100.00;101135.94;5055860;28;19905;-37
2023/08/28 01:26:15;;;;;;;3.92;3.15;;;;;;;12.99;100.00;101142.22;5055223;28;20021;-37
2023/08/28 01:28:41;;;;;;;4.72;3.25;;;;;;;13.03;100.00;101143.38;5054599;28;20111;-37
2023/08/28 01:31:06;;;;;;;;;;;;;;;13.15;100.00;101153.13;5055813;28;20100;-37
2023/08/28 01:33:33;;;;;;;4.07;3.30;;;;;;;12.96;100.00;101143.50;5055370;28;19904;-37
2023/08/28 01:36:05;;;;;;;5.18;3.70;;;;;;;12.96;100.00;101132.66;5055326;28;20302;-37
2023/08/28 01:38:36;;;;;;;5.05;3.38;;;;;;;12.94;100.00;101118.50;5054344;28;20024;-37
2023/08/28 01:41:07;;;;;;;5.82;3.38;;;;;;;12.93;100.00;101132.28;5054370;28;20017;-37
2023/08/28 01:43:38;;;;;;;5.55;3.30;;;;;;;12.89;100.00;101134.69;5054919;28;20029;-37
2023/08/28 01:46:07;;;;;;;5.85;3.60;;;;;;;12.81;100.00;101129.63;5054820;28;20017;-37
2023/08/28 01:48:40;;;;;;;3.88;3.13;;;;;;;12.83;100.00;101116.63;5054793;28;20035;-37
2023/08/28 01:51:05;;;;;;;5.68;3.78;;;;;;;12.87;100.00;101124.03;5055078;28;20111;-37
2023/08/28 01:53:31;;;;;;;;;;;;;;;13.05;100.00;101119.53;5055497;28;20028;-37
2023/08/28 01:56:15;;;;;;;4.63;3.50;;;;;;;12.93;100.00;101116.84;5054384;28;20260;-37
2023/08/28 01:58:43;;;;;;;5.28;3.70;;;;;;;12.82;100.00;101120.41;5054920;28;20299;-37
2023/08/28 02:01:08;;;;;;;6.38;3.90;;;;;;;12.82;100.00;101126.66;5053967;28;20017;-37
2023/08/28 02:03:33;;;;;;;;;;;;;;;12.96;100.00;101126.41;5055551;28;20025;-37
2023/08/28 02:05:59;;;;;;;3.85;3.40;;;;;;;12.81;100.00;101137.75;5054460;28;19948;-37
2023/08/28 02:08:24;;;;;;;3.83;3.30;;;;;;;12.78;100.00;101130.91;5054206;28;20115;-37
2023/08/28 02:10:52;;;;;;;5.03;3.47;;;;;;;12.69;100.00;101116.09;5054593;28;20407;-37
2023/08/28 02:13:17;;;;;;;4.38;3.30;;;;;;;12.78;100.00;101124.66;5053764;28;20032;-37
2023/08/28 02:15:42;;;;;;;;;;;;;;;12.90;100.00;101114.63;5054419;28;20025;-37
2023/08/28 02:18:08;;;;;;;5.33;3.83;;;;;;;12.81;100.00;101102.47;5054202;28;20000;-37
2023/08/28 02:20:33;;;;;;;4.03;3.40;;;;;;;12.76;100.00;101099.66;5054500;28;20271;-37
2023/08/28 02:22:58;;;;;;;4.13;3.47;;;;;;;12.71;100.00;101105.81;5054282;28;20254;-37
2023/08/28 02:25:24;;;;;;;5.25;3.72;;;;;;;12.65;100.00;101100.50;5054114;28;20267;-37
2023/08/28 02:27:50;;;;;;;3.85;3.45;;;;;;;12.68;100.00;101119.84;5054385;28;20070;-37
2023/08/28 02:30:16;;;;;;;6.70;3.20;;;;;;;12.66;100.00;101113.00;5053773;28;20052;-37
2023/08/28 02:32:42;;;;;;;3.63;3.00;;;;;;;12.61;100.00;101125.41;5054123;28;20025;-37
2023/08/28 02:35:09;;;;;;;5.13;3.88;;;;;;;12.64;100.00;101118.69;5053694;28;20453;-37
2023/08/28 02:37:34;;;;;;;5.15;3.47;;;;;;;12.59;100.00;101121.25;5053642;28;20449;-37
2023/08/28 02:40:00;;;;;;;;;;;;;;;12.75;100.00;101120.53;5053850;28;20039;-37
2023/08/28 02:42:25;;;;;;;5.03;3.53;;;;;;;12.57;100.00;101113.38;5053951;28;20402;-37
2023/08/28 02:44:50;;;;;;;5.13;3.30;;;;;;;12.56;100.00;101110.91;5053411;28;20739;-37
2023/08/28 02:47:16;;;;;;;3.75;3.33;;;;;;;12.50;100.00;101111.84;5053749;28;20349;-37
2023/08/28 02:49:41;;;;;;;5.68;3.25;;;;;;;12.49;100.00;101110.19;5053868;28;20449;-37
2023/08/28 02:52:07;;;;;;;4.85;3.13;;;;;;;12.47;100.00;101115.03;5053891;28;20024;-37
2023/08/28 02:54:32;;;;;;;4.40;3.60;;;;;;;12.44;100.00;101119.03;5053245;28;20044;-37
2023/08/28 02:56:58;;;;;;;4.15;3.72;;;;;;;12.38;100.00;101130.81;5053254;28;20032;-37
2023/08/28 02:59:23;;;;;;;;;;;;;;;12.51;100.00;101136.03;5054438;28;20402;-37
2023/08/28 03:01:49;;;;;;;4.53;3.80;;;;;;;12.36;100.00;101139.22;5053508;28;19909;-37
2023/08/28 03:04:14;;;;;;;5.77;3.93;;;;;;;12.30;100.00;101134.72;5053421;28;20755;-37
2023/08/28 03:06:39;;;;;;;6.17;3.97;;;;;;;12.37;100.00;101131.91;5054002;28;20255;-37
2023/08/28 03:09:07;;;;;;;7.55;4.38;;;;;;;12.31;100.00;101124.72;5054170;28;20033;-37
2023/08/28 03:11:34;;;;;;;3.92;3.58;;;;;;;12.39;100.00;101127.03;5053339;28;20032;-37
2023/08/28 03:13:59;;;;;;;3.88;3.38;;;;;;;12.48;100.00;101141.09;5053249;28;20017;-37
2023/08/28 03:16:24;;;;;;;4.53;3.80;;;;;;;12.43;100.00;101138.25;5053088;28;20071;-37
2023/08/28 03:18:50;;;;;;;4.50;4.10;;;;;;;12.42;100.00;101142.84;5052921;28;20131;-37
2023/08/28 03:21:15;;;;;;;5.57;3.97;;;;;;;12.31;100.00;101136.38;5053348;28;20024;-37
2023/08/28 03:23:41;;;;;;;4.38;3.95;;;;;;;12.40;100.00;101147.69;5052915;28;20013;-37
2023/08/28 03:26:06;;;;;;;6.72;4.63;;;;;;;12.30;100.00;101147.47;5053002;28;20100;-37
2023/08/28 03:28:32;;;;;;;4.18;3.78;;;;;;;12.31;100.00;101149.13;5053557;28;20029;-37
2023/08/28 03:30:58;;;;;;;4.43;3.93;;;;;;;12.28;100.00;101153.09;5053187;28;20028;-37
2023/08/28 03:33:24;;;;;;;4.43;4.03;;;;;;;12.27;100.00;101156.06;5054000;28;20272;-37
2023/08/28 03:35:49;;;;;;;4.70;3.78;;;;;;;12.16;100.00;101138.72;5053139;28;20025;-37
2023/08/28 03:38:15;;;;;;;5.45;4.00;;;;;;;12.15;100.00;101141.66;5053621;28;20075;-37
2023/08/28 03:40:40;;;;;;;4.57;4.00;;;;;;;12.20;100.00;101149.91;5053084;28;20052;-37
2023/08/28 03:43:06;;;;;;;5.95;3.70;;;;;;;12.26;100.00;101159.84;5053627;28;20025;-37
2023/08/28 03:45:31;;;;;;;5.00;3.92;;;;;;;12.22;100.00;101159.47;5055190;28;20024;-37
2023/08/28 03:47:57;;;;;;;5.97;4.95;;;;;;;12.17;100.00;101169.38;5057649;28;20031;-37
2023/08/28 03:50:22;;;;;;;4.43;4.03;;;;;;;12.12;100.00;101175.50;5057327;28;20017;-37
2023/08/28 03:52:47;;;;;;;5.15;4.00;;;;;;;12.28;100.00;101174.78;5057601;28;20020;-37
2023/08/28 03:55:13;;;;;;;6.63;4.40;;;;;;;12.16;100.00;101168.56;5056613;28;20028;-37
2023/08/28 03:57:39;;;;;;;6.63;4.60;;;;;;;12.18;100.00;101174.56;5056897;28;20287;-37
2023/08/28 04:00:10;;;;;;;5.10;4.57;;;;;;;12.20;100.00;101168.88;5057112;28;20389;-37
2023/08/28 04:02:36;;;;;;;5.28;4.60;;;;;;;12.14;100.00;101170.66;5056512;28;20033;-37
2023/08/28 04:05:04;;;;;;;5.25;4.72;;;;;;;12.29;100.00;101187.28;5057308;28;20036;-37
2023/08/28 04:07:29;;;;;;;6.60;4.90;;;;;;;12.24;100.00;101183.63;5056438;28;20476;-37
2023/08/28 04:09:54;;;;;;;6.25;4.90;;;;;;;12.25;100.00;101190.69;5055176;28;20051;-37
2023/08/28 04:12:19;;;;;;;6.15;4.95;;;;;;;12.25;100.00;101196.13;5056686;28;20107;-37
2023/08/28 04:14:46;;;;;;;;;;;;;;;12.34;100.00;101198.25;5056394;28;20171;-37
2023/08/28 04:17:11;;;;;;;5.15;4.30;;;;;;;12.28;100.00;101195.66;5056486;28;20015;-37
2023/08/28 04:19:36;;;;;;;5.77;4.90;;;;;;;12.23;100.00;101198.25;5056793;28;20344;-37
2023/08/28 04:22:02;;;;;;;8.25;5.20;;;;;;;12.17;100.00;101202.72;5056121;28;20682;-37
2023/08/28 04:24:28;;;;;;;;;;;;;;;12.33;100.00;101204.75;5056563;28;20028;-37
2023/08/28 04:26:53;;;;;;;7.63;5.27;;;;;;;12.13;100.00;101189.88;5055803;28;19904;-37
2023/08/28 04:29:18;;;;;;;8.20;5.17;;;;;;;12.27;100.00;101202.16;5071819;28;20363;-37
2023/08/28 04:31:44;;;;;;;5.18;4.68;;;;;;;12.27;100.00;101204.88;5056340;28;20021;-37
2023/08/28 04:34:09;;;;;;;7.43;4.47;;;;;;;12.35;100.00;101205.34;5055963;28;20028;-37
2023/08/28 04:36:34;;;;;;;5.67;4.93;;;;;;;12.30;100.00;101199.81;5056007;28;20240;-37
2023/08/28 04:38:59;;;;;;;5.30;4.80;;;;;;;12.29;100.00;101202.72;5055807;28;20759;-37
2023/08/28 04:41:25;;;;;;;6.40;5.20;;;;;;;12.33;100.00;101204.75;5055661;28;20445;-37
2023/08/28 04:43:50;;;;;;;8.40;5.07;;;;;;;12.32;100.00;101210.41;5054517;28;20365;-37
2023/08/28 04:46:16;;;;;;;6.05;5.38;;;;;;;12.29;100.00;101213.59;5056068;28;20063;-37
2023/08/28 04:48:41;;;;;;;6.03;4.97;;;;;;;12.29;100.00;101211.69;5055908;28;20516;-37
2023/08/28 04:51:06;;;;;;;5.50;4.35;;;;;;;12.33;100.00;101201.22;5055317;28;20021;-37
2023/08/28 04:53:32;;;;;;;6.47;5.57;;;;;;;12.34;100.00;101200.16;5055660;28;20025;-37
2023/08/28 04:55:57;;;;;;;6.53;5.70;;;;;;;12.39;100.00;101200.28;5055284;28;20017;-37
2023/08/28 04:58:22;;;;;;;6.90;5.10;;;;;;;12.44;100.00;101188.72;5055955;28;20060;-37
2023/08/28 05:00:48;;;;;;;6.30;4.93;;;;;;;12.42;100.00;101180.00;5055575;28;20082;-37
2023/08/28 05:03:13;;;;;;;8.00;5.53;;;;;;;12.44;100.00;101178.69;5055165;28;20291;-37
2023/08/28 05:05:39;;;;;;;5.97;4.88;;;;;;;12.43;100.00;101166.19;5055421;28;20025;-37
2023/08/28 05:08:05;;;;;;;6.35;5.28;;;;;;;12.53;100.00;101180.00;5055610;28;20031;-37
2023/08/28 05:10:31;;;;;;;5.45;4.53;;;;;;;12.52;100.00;101177.53;5054980;28;20017;-37
2023/08/28 05:12:56;;;;;;;6.20;5.50;;;;;;;12.51;100.00;101174.00;5055371;28;20067;-37
2023/08/28 05:15:22;;;;;;;9.07;5.43;;;;;;;12.63;100.00;101177.53;5055567;28;20460;-37
2023/08/28 05:17:48;;;;;;;6.78;5.75;;;;;;;12.58;100.00;101174.69;5055672;28;20090;-37
2023/08/28 05:20:13;;;;;;;;;;;;;;;12.73;100.00;101182.34;5055883;28;20104;-37
2023/08/28 05:22:39;;;;;;;6.22;5.63;;;;;;;12.73;100.00;101176.09;5055310;28;20000;-37
2023/08/28 05:25:04;;;;;;;7.07;6.20;;;;;;;12.73;100.00;101171.50;5055261;28;20021;-37
2023/08/28 05:27:30;;;;;;;6.75;6.07;;;;;;;12.82;100.00;101166.53;5054893;28;20119;-37
2023/08/28 05:29:55;;;;;;;10.38;6.35;;;;;;;12.76;100.00;101164.78;5054983;28;20039;-37
2023/08/28 05:32:20;;;;;;;7.43;6.73;;;;;;;12.84;100.00;101167.16;5053961;28;20025;-37
2023/08/28 05:34:46;;;;;;;9.70;6.63;;;;;;;12.98;100.00;101173.13;5054868;28;20299;-37
2023/08/28 05:37:11;;;;;;;7.22;6.47;;;;;;;13.05;100.00;101171.13;5055090;28;20263;-37
2023/08/28 05:39:36;;;;;;;9.40;7.18;;;;;;;13.09;100.00;101175.00;5054981;28;20025;-37
2023/08/28 05:42:02;;;;;;;6.50;5.80;;;;;;;13.24;100.00;101167.19;5054907;28;20032;-37
2023/08/28 05:44:27;;;;;;;7.15;5.65;;;;;;;13.36;100.00;101167.16;5054602;28;20028;-36
2023/08/28 05:46:53;;;;;;;8.50;6.30;;;;;;;13.48;100.00;101172.56;5055107;28;20479;-36
2023/08/28 05:49:18;;;;;;;7.10;5.80;;;;;;;13.53;100.00;101162.63;5054478;28;20032;-38
2023/08/28 05:51:43;;;;;;;7.32;6.60;;;;;;;13.63;100.00;101165.50;5054802;28;20098;-37
2023/08/28 05:54:09;;;;;;;6.43;5.57;;;;;;;13.77;100.00;101176.09;5055002;28;20342;-37
2023/08/28 05:56:34;;;;;;;6.07;5.50;;;;;;;13.86;100.00;101172.75;5054980;28;20310;-37
2023/08/28 05:59:00;;;;;;;;;;;;;;;14.02;100.00;101178.44;5054902;28;20124;-37
2023/08/28 06:01:25;;;;;;;6.93;5.45;;;;;;;14.03;100.00;101178.19;5054899;28;19909;-37
2023/08/28 06:03:55;;;;;;;8.73;5.90;;;;;;;14.01;100.00;101166.75;5053997;28;20461;-37
2023/08/28 06:06:24;;;;;;;6.93;6.32;;;;;;;14.12;100.00;101175.88;5054503;28;20162;-37
2023/08/28 06:08:49;;;;;;;7.88;6.97;;;;;;;14.05;100.00;101167.06;5053344;28;20043;-38
2023/08/28 06:11:15;;;;;;;7.63;6.33;;;;;;;14.05;100.00;101178.75;5053845;28;20025;-38
2023/08/28 06:13:40;;;;;;;7.50;6.70;;;;;;;14.04;100.00;101168.94;5054876;28;20264;-37
2023/08/28 06:16:06;;;;;;;7.78;6.13;;;;;;;14.09;100.00;101162.78;5054353;28;20270;-38
2023/08/28 06:18:31;;;;;;;;;;;;;;;14.32;100.00;101169.97;5054705;28;20506;-37
2023/08/28 06:20:56;;;;;;;8.77;6.55;;;;;;;14.19;100.00;101157.50;5054243;28;19913;-38
2023/08/28 06:23:22;;;;;;;7.43;6.13;;;;;;;14.17;100.00;101155.03;5054053;28;20025;-37
2023/08/28 06:25:47;;;;;;;6.82;6.20;;;;;;;14.31;100.00;101171.03;5053709;28;20021;-37
2023/08/28 06:28:13;;;;;;;7.53;6.82;;;;;;;14.28;100.00;101171.53;5054743;28;20349;-37
2023/08/28 06:30:38;;;;;;;;;;;;;;;14.51;100.00;101179.53;5054258;28;20346;-37
2023/08/28 06:33:04;;;;;;;6.82;6.22;;;;;;;14.53;100.00;101182.81;5053791;28;19908;-37
2023/08/28 06:35:30;;;;;;;;;;;;;;;14.65;100.00;101186.28;5053911;28;20117;-37
2023/08/28 06:37:55;;;;;;;6.70;5.97;;;;;;;14.57;100.00;101175.00;5053660;28;19909;-37
2023/08/28 06:40:20;;;;;;;7.10;6.22;;;;;;;14.60;100.00;101175.31;5053693;28;20075;-38
2023/08/28 06:42:46;;;;;;;;;;;;;;;14.78;100.00;101173.38;5054367;28;20480;-37
2023/08/28 06:45:12;;;;;;;5.60;5.07;;;;;;;14.67;100.00;101169.69;5053792;28;20351;-37
2023/08/28 06:47:37;;;;;;;6.65;5.93;;;;;;;14.78;100.00;101178.81;5053374;28;20251;-37
2023/08/28 06:50:02;;;;;;;;;;;;;;;14.89;100.00;101183.38;5054020;28;20412;-37
2023/08/28 06:52:28;;;;;;;8.52;5.88;;;;;;;14.88;100.00;101176.25;5053310;28;19904;-37
2023/08/28 06:54:53;;;;;;;7.72;5.90;;;;;;;14.91;100.00;101187.47;5053620;28;20031;-41
2023/08/28 06:57:19;;;;;;;;;;;;;;;15.05;100.00;101187.94;5054205;28;20025;-38
2023/08/28 06:59:44;;;;;;;7.38;5.47;;;;;;;15.04;100.00;101194.47;5053656;28;19912;-38
2023/08/28 07:02:10;;;;;;;6.82;5.72;;;;;;;15.10;100.00;101195.34;5053800;28;20549;-38
2023/08/28 07:04:35;;;;;;;;;;;;;;;15.23;100.00;101205.88;5053893;28;20406;-38
2023/08/28 07:07:00;;;;;;;7.23;5.43;;;;;;;15.24;100.00;101203.97;5054067;28;19908;-37
2023/08/28 07:09:26;;;;;;;5.95;5.35;;;;;;;15.27;100.00;101211.63;5053408;28;20263;-37
2023/08/28 07:11:51;;;;;;;;;;;;;;;15.35;100.00;101212.00;5054412;28;20033;-37
2023/08/28 07:14:16;;;;;;;6.03;5.43;;;;;;;15.28;100.00;101219.56;5053953;28;20371;-38
2023/08/28 07:16:42;;;;;;;6.50;5.50;;;;;;;15.32;100.00;101201.59;5053592;28;20618;-38
2023/08/28 07:19:07;;;;;;;6.60;5.70;;;;;;;15.43;100.00;101205.31;5053888;28;20017;-37
2023/08/28 07:21:32;;;;;;;;;;;;;;;15.55;100.00;101203.25;5058069;28;20031;-38
2023/08/28 07:23:58;;;;;;;5.70;5.20;;;;;;;15.48;100.00;101201.81;5057303;28;19947;-38
2023/08/28 07:26:23;;;;;;;;;;;;;;;15.59;100.00;101209.00;5057811;28;20029;-37
2023/08/28 07:28:48;;;;;;;8.15;5.78;;;;;;;15.64;100.00;101209.91;5056896;28;19905;-37
2023/08/28 07:31:14;;;;;;;;;;;;;;;15.75;100.00;101205.41;5057879;28;20024;-37
2023/08/28 07:33:39;;;;;;;8.05;5.65;;;;;;;15.81;100.00;101198.09;5056852;28;19953;-38
2023/08/28 07:36:05;;;;;;;;;;;;;;;15.93;100.00;101201.50;5057807;28;20468;-38
2023/08/28 07:38:30;;;;;;;5.13;4.57;;;;;;;15.87;100.00;101189.72;5057297;28;20257;-37
2023/08/28 07:40:56;;;;;;;;;;;;;;;16.04;100.00;101189.59;5057487;28;20059;-38
2023/08/28 07:43:21;;;;;;;4.25;3.85;;;;;;;16.08;100.00;101195.38;5057548;28;19909;-38
2023/08/28 07:45:46;;;;;;;;;;;;;;;16.22;100.00;101200.13;5057636;28;20090;-38
2023/08/28 07:48:12;;;;;;;4.33;3.80;;;;;;;16.31;100.00;101199.66;5057708;28;19966;-37
2023/08/28 07:50:38;;;;;;;;;;;;;;;16.44;100.00;101194.56;5056927;28;20318;-38
2023/08/28 07:53:03;;;;;;;5.35;4.07;;;;;;;16.47;100.00;101195.97;5057050;28;19908;-38
2023/08/28 07:55:29;;;;;;;;;;;;;;;16.61;100.00;101190.88;5057142;28;20024;-38
2023/08/28 07:57:55;;;;;;;4.47;4.07;;;;;;;16.67;100.00;101198.00;5056293;28;19909;-38
2023/08/28 08:00:21;;;;;;;;;;;;;;;16.83;100.00;101196.22;5057602;28;20053;-38
2023/08/28 08:02:49;;;;;;;5.05;4.00;;;;;;;16.80;100.00;101192.13;5056631;28;20026;-37
2023/08/28 08:05:14;;;;;;;4.72;3.50;;;;;;;16.83;100.00;101194.31;5056593;28;20036;-38
2023/08/28 08:07:40;;;;;;;;;;;;;;;16.96;100.00;101201.22;5056978;28;20032;-38
2023/08/28 08:10:11;;;;;;;3.40;3.10;;;;;;;16.87;100.00;101197.34;5056200;28;19908;-38
2023/08/28 08:12:38;;;;;;;4.53;2.90;;;;;;;16.91;100.00;101198.47;5056758;28;20214;-38
2023/08/28 08:15:04;;;;;;;2.70;2.10;;;;;;;16.96;100.00;101201.22;5056922;28;20035;-38
2023/08/28 08:17:30;;;;;;;2.95;2.17;;;;;;;16.94;100.00;101189.75;5056606;28;20066;-37
2023/08/28 08:19:55;;;;;;;;;;;;;;;17.18;100.00;101201.91;5056729;28;20044;-38
2023/08/28 08:22:20;;;;;;;3.50;2.67;;;;;;;17.33;100.00;101197.59;5056548;28;19994;-37
2023/08/28 08:24:45;;;;;;;;;;;;;;;17.54;100.00;101198.47;5057193;28;20358;-38
2023/08/28 08:27:11;;;;;;;3.60;2.90;;;;;;;17.61;100.00;101191.63;5056248;28;19904;-38
2023/08/28 08:29:36;;;;;;;;;;;;;;;17.77;100.00;101195.28;5057145;28;20731;-38
2023/08/28 08:32:01;;;;;;;4.50;3.30;;;;;;;17.56;100.00;101197.09;5055686;28;19905;-38
2023/08/28 08:34:28;;;;;;;;;;;;;;;17.69;100.00;101198.50;5056754;28;20259;-38
2023/08/28 08:36:53;;;;;;;4.22;3.20;;;;;;;17.60;100.00;101200.94;5056538;28;19950;-38
2023/08/28 08:39:19;;;;;;;;;;;;;;;17.70;100.00;101195.50;5056255;28;20024;-38
2023/08/28 08:41:45;;;;;;;7.20;3.50;;;;;;;17.56;100.00;101204.47;5056180;28;19912;-38
2023/08/28 08:44:10;;;;;;;;;;;;;;;17.64;100.00;101209.44;5055906;28;20362;-38
2023/08/28 08:46:36;;;;;;;3.97;2.65;;;;;;;17.45;100.00;101198.16;5055785;28;20011;-37
2023/08/28 08:49:03;;;;;;;;;;;;;;;17.61;100.00;101212.69;5055795;28;20029;-37
2023/08/28 08:51:30;;;;;;;2.42;2.22;;;;;;;17.46;100.00;101217.03;5056559;28;20349;-38
2023/08/28 08:54:06;;;;;;;4.20;2.88;;;;;;;17.38;100.00;101212.09;5055638;28;20037;-38
2023/08/28 08:56:33;;;;;;;3.58;2.45;;;;;;;17.28;100.00;101201.13;5055606;28;20029;-37
2023/08/28 08:58:59;;;;;;;3.25;2.05;;;;;;;17.30;100.00;101217.25;5055408;28;20136;-38
2023/08/28 09:01:26;;;;;;;3.60;2.35;;;;;;;17.21;100.00;101212.28;5055776;28;20138;-38
2023/08/28 09:03:52;;;;;;;3.35;2.15;;;;;;;17.19;100.00;101216.38;5055487;28;20021;-37
2023/08/28 09:06:17;;;;;;;;;;;;;;;17.29;100.00;101212.88;5056241;28;20029;-38
2023/08/28 09:08:44;;;;;;;6.78;2.25;;;;;;;17.09;100.00;101217.16;5055645;28;19997;-37
2023/08/28 09:11:09;;;;;;;4.00;2.30;;;;;;;17.00;100.00;101216.00;5055895;28;20025;-38
2023/08/28 09:13:35;;;;;;;;;;;;;;;17.07;100.00;101229.41;5055414;28;20527;-38
2023/08/28 09:16:01;;;;;;;3.60;2.45;;;;;;;16.85;100.00;101224.94;5055577;28;19909;-38
2023/08/28 09:18:26;;;;;;;;;;;;;;;16.93;100.00;101224.44;5056169;28;20151;-38
2023/08/28 09:21:08;;;;;;;2.83;2.50;;;;;;;16.79;100.00;101216.94;5054892;28;20387;-38
2023/08/28 09:23:34;;;;;;;3.80;2.40;;;;;;;16.65;100.00;101209.19;5055071;28;20040;-37
2023/08/28 09:26:00;;;;;;;;;;;;;;;16.79;100.00;101209.59;5055432;28;20029;-38
2023/08/28 09:28:26;;;;;;;2.88;2.03;;;;;;;16.74;100.00;101212.31;5055327;28;19955;-38
2023/08/28 09:30:52;;;;;;;5.07;2.55;;;;;;;16.72;100.00;101190.69;5055008;28;20028;-38
2023/08/28 09:33:17;;;;;;;;;;;;;;;16.89;100.00;101200.66;5055381;28;20021;-38
2023/08/28 09:35:43;;;;;;;1.87;1.67;;;;;;;16.91;100.00;101203.94;5054881;28;19952;-38
2023/08/28 09:38:10;;;;;;;3.10;1.98;;;;;;;16.96;100.00;101203.97;5054483;28;20321;-38
2023/08/28 09:40:37;;;;;;;2.75;1.83;;;;;;;17.07;100.00;101200.19;5054741;28;20052;-38
2023/08/28 09:43:13;;;;;;;2.45;1.70;;;;;;;17.17;100.00;101213.06;5054209;28;20409;-38
2023/08/28 09:45:40;;;;;;;3.80;1.70;;;;;;;17.24;100.00;101214.50;5055499;28;20352;-38
2023/08/28 09:48:07;;;;;;;3.28;1.80;;;;;;;17.34;100.00;101213.72;5054629;28;20025;-38
2023/08/28 09:50:34;;;;;;;4.32;2.08;;;;;;;17.45;100.00;101214.56;5054838;28;20361;-38
2023/08/28 09:53:10;;;;;;;2.50;1.77;;;;;;;17.56;100.00;101216.25;5054797;28;20094;-38
2023/08/28 09:55:52;;;;;;;4.22;1.52;;;;;;;17.68;100.00;101219.56;5054474;28;20028;-38
2023/08/28 09:58:18;;;;;;;3.40;1.55;;;;;;;17.83;100.00;101218.00;5054436;28;20376;-38
2023/08/28 10:00:44;;;;;;;2.80;1.63;;;;;;;17.93;100.00;101227.03;5054428;28;20041;-37
2023/08/28 10:03:10;;;;;;;;;;;;;;;18.02;100.00;101219.94;5055123;28;20377;-38
2023/08/28 10:05:42;;;;;;;2.58;1.70;;;;;;;17.94;100.00;101215.00;5054390;28;19911;-38
2023/08/28 10:08:09;;;;;;;2.72;1.50;;;;;;;17.95;100.00;101227.56;5054296;28;20111;-38
2023/08/28 10:10:35;;;;;;;2.33;1.40;;;;;;;18.08;100.00;101226.25;5054158;28;20020;-38
2023/08/28 10:13:05;;;;;;;1.70;1.10;;;;;;;18.11;100.00;101225.72;5054196;28;20029;-38
2023/08/28 10:15:40;;;;;;;2.00;1.00;;;;;;;18.08;100.00;101212.56;5055226;28;20348;-38
2023/08/28 10:18:09;;;;;;;3.63;1.10;;;;;;;18.13;100.00;101217.22;5054026;28;20024;-38
2023/08/28 10:20:36;;;;;;;1.77;1.13;;;;;;;18.21;100.00;101213.94;5054017;28;20025;-38
2023/08/28 10:23:03;;;;;;;1.52;1.00;;;;;;;18.33;100.00;101200.78;5053709;28;20457;-38
2023/08/28 10:25:29;;;;;;;1.88;1.17;;;;;;;18.46;100.00;101210.38;5054483;28;20380;-38
2023/08/28 10:27:56;;;;;;;1.77;1.00;;;;;;;18.86;100.00;101220.50;5054714;28;20082;-37
2023/08/28 10:30:24;;;;;;;2.88;0.95;;;;;;;18.85;100.00;101216.13;5054116;28;20024;-37
2023/08/28 10:32:51;;;;;;;2.22;0.95;;;;;;;18.95;100.00;101226.22;5053831;28;20023;-37
2023/08/28 10:35:18;;;;;;;1.95;1.20;;;;;;;18.86;100.00;101215.00;5053736;28;20139;-37
2023/08/28 10:37:45;;;;;;;2.42;1.10;;;;;;;18.90;100.00;101226.25;5054259;28;20021;-37
2023/08/28 10:40:11;;;;;;;1.55;1.08;;;;;;;18.72;100.00;101219.41;5053379;28;20461;-37
2023/08/28 10:42:37;;;;;;;;;;;;;;;18.83;100.00;101218.28;5054742;28;20112;-37
2023/08/28 10:45:03;;;;;;;1.33;0.85;;;;;;;18.63;100.00;101218.31;5053937;28;19905;-37
2023/08/28 10:47:28;;;;;;;;;;;;;;;18.81;100.00;101216.94;5054399;28;20499;-37
2023/08/28 10:49:55;;;;;;;2.95;0.98;;;;;;;18.55;100.00;101218.88;5053548;28;19908;-37
2023/08/28 10:52:22;;;;;;;1.60;1.00;;;;;;;18.57;100.00;101220.22;5053587;28;20025;-37
2023/08/28 10:54:47;;;;;;;2.90;1.13;;;;;;;18.55;100.00;101216.13;5053079;28;20103;-37
2023/08/28 10:57:23;;;;;;;;;;;;;;;18.65;100.00;101211.47;5053917;28;20532;-37
2023/08/28 10:59:49;;;;;;;0.90;0.77;;;;;;;18.51;100.00;101216.69;5053378;28;19912;-37
2023/08/28 11:02:14;;;;;;;;;;;;;;;18.68;100.00;101215.56;5055072;28;20040;-37
2023/08/28 11:04:40;;;;;;;1.75;1.20;;;;;;;18.51;100.00;101200.25;5053069;28;19917;-37
2023/08/28 11:07:30;;;;;;;1.25;0.90;;;;;;;18.68;100.00;101210.94;5053443;28;20024;-38
2023/08/28 11:10:20;;;;;;;1.95;1.10;;;;;;;18.74;100.00;101206.28;5053653;28;20029;-38
2023/08/28 11:12:54;;;;;;;2.17;1.20;;;;;;;18.68;100.00;101202.72;5053976;28;20071;-38
2023/08/28 11:15:28;;;;;;;1.52;1.23;;;;;;;18.63;100.00;101194.47;5053896;28;20017;-38
2023/08/28 11:18:12;;;;;;;1.75;1.10;;;;;;;18.53;100.00;101191.75;5053854;28;20024;-38
2023/08/28 11:20:38;;;;;;;1.70;1.20;;;;;;;18.43;100.00;101195.31;5053876;28;20060;-38
2023/08/28 11:23:03;;;;;;;;;;;;;;;18.67;100.00;101192.00;5054329;28;20060;-38
2023/08/28 11:25:40;;;;;;;2.60;1.48;;;;;;;18.94;100.00;101187.06;5053293;28;19905;-38